Time;durP1;ratioP1;P1;durP2;ratioP2;P2;SDS_P1;SDS_P2;PMS_P1;PMS_P2;Temp;Humidity;BMP_temperature;BMP_pressure;BME280_temperature;BME280_humidity;BME280_pressure;Samples;Min_cycle;Max_cycle;Signal;HPM_P1;HPM_P2
2021/05/21 00:00:32;;;;;;;5.65;4.15;;;;;;;12.24;83.13;99242.34;1644577;86;22251;-71
2021/05/21 00:02:58;;;;;;;6.33;4.20;;;;;;;12.26;82.93;99232.65;1632466;87;21096;-70
2021/05/21 00:05:25;;;;;;;4.70;3.70;;;;;;;12.30;82.88;99242.61;1625511;87;21101;-70
2021/05/21 00:07:51;;;;;;;3.70;3.30;;;;;;;12.33;82.61;99244.76;1598294;87;21026;-71
2021/05/21 00:10:18;;;;;;;4.72;3.87;;;;;;;12.38;82.34;99245.28;1637808;87;21609;-71
2021/05/21 00:12:45;;;;;;;3.67;3.33;;;;;;;12.40;82.06;99241.80;1627672;87;21017;-72
2021/05/21 00:15:14;;;;;;;4.92;2.80;;;;;;;12.42;81.94;99239.64;1637130;87;21166;-69
2021/05/21 00:17:41;;;;;;;6.12;3.00;;;;;;;12.43;81.83;99237.19;1610618;87;21645;-70
2021/05/21 00:20:09;;;;;;;4.12;3.17;;;;;;;12.44;81.47;99241.51;1643763;87;21088;-70
2021/05/21 00:22:36;;;;;;;4.47;3.17;;;;;;;12.42;81.33;99249.86;1624119;86;21029;-67
2021/05/21 00:25:06;;;;;;;2.98;2.50;;;;;;;12.42;81.17;99245.03;1616934;87;20977;-67
2021/05/21 00:27:32;;;;;;;7.20;3.20;;;;;;;12.44;80.88;99247.72;1635871;87;21104;-68
2021/05/21 00:29:59;;;;;;;7.78;3.20;;;;;;;12.38;80.98;99254.19;1643775;86;22036;-68
2021/05/21 00:32:25;;;;;;;4.92;2.98;;;;;;;12.39;80.97;99253.12;1627548;87;21038;-68
2021/05/21 00:34:52;;;;;;;5.25;3.12;;;;;;;12.43;80.73;99251.48;1639596;87;21053;-68
2021/05/21 00:37:18;;;;;;;3.67;3.37;;;;;;;12.47;80.47;99254.47;1628070;87;21120;-69
2021/05/21 00:39:46;;;;;;;3.95;2.90;;;;;;;12.42;80.42;99257.95;1608488;87;21061;-68
2021/05/21 00:42:13;;;;;;;4.37;3.47;;;;;;;12.40;80.31;99261.48;1620997;87;21091;-69
2021/05/21 00:44:39;;;;;;;4.42;3.17;;;;;;;12.38;80.28;99266.33;1639592;87;21113;-69
2021/05/21 00:47:06;;;;;;;2.70;2.35;;;;;;;12.40;80.30;99267.41;1623371;84;21647;-69
2021/05/21 00:49:33;;;;;;;2.90;2.50;;;;;;;12.39;80.12;99263.09;1663629;86;21078;-69
2021/05/21 00:52:02;;;;;;;3.35;2.72;;;;;;;12.35;80.07;99257.98;1662285;86;21113;-71
2021/05/21 00:54:29;;;;;;;5.08;3.40;;;;;;;12.34;80.11;99269.84;1653582;86;21009;-67
2021/05/21 00:56:55;;;;;;;5.37;3.40;;;;;;;12.29;80.32;99266.61;1662676;86;21034;-68
2021/05/21 00:59:21;;;;;;;3.62;3.02;;;;;;;12.20;80.53;99270.39;1654051;86;21059;-71
2021/05/21 01:01:48;;;;;;;3.83;3.35;;;;;;;12.14;80.82;99275.52;1636094;87;21110;-68
2021/05/21 01:04:14;;;;;;;8.45;3.58;;;;;;;12.08;81.06;99273.11;1634372;86;21116;-69
2021/05/21 01:06:40;;;;;;;6.25;3.72;;;;;;;12.06;81.21;99274.71;1638254;87;21690;-68
2021/05/21 01:09:07;;;;;;;5.03;3.77;;;;;;;12.07;81.40;99274.17;1640265;86;20943;-70
2021/05/21 01:11:33;;;;;;;10.90;3.90;;;;;;;12.08;81.40;99282.55;1642858;87;20967;-69
2021/05/21 01:14:02;;;;;;;6.03;3.75;;;;;;;12.01;81.72;99280.64;1643431;87;21064;-71
2021/05/21 01:16:28;;;;;;;3.35;3.02;;;;;;;11.95;82.16;99281.70;1641896;87;21072;-70
2021/05/21 01:18:56;;;;;;;11.05;3.83;;;;;;;11.99;82.41;99284.94;1623891;87;21017;-70
2021/05/21 01:21:22;;;;;;;8.13;3.42;;;;;;;11.93;82.73;99283.87;1623265;87;21531;-74
2021/05/21 01:23:50;;;;;;;3.10;2.25;;;;;;;11.95;82.87;99274.97;1642522;87;21606;-69
2021/05/21 01:26:16;;;;;;;3.55;2.27;;;;;;;11.92;82.99;99278.20;1608003;87;21086;-69
2021/05/21 01:28:43;;;;;;;5.08;2.75;;;;;;;11.84;83.46;99279.56;1636196;87;21599;-68
2021/05/21 01:31:09;;;;;;;3.95;3.52;;;;;;;11.79;83.73;99278.20;1642306;86;20999;-69
2021/05/21 01:33:36;;;;;;;3.37;3.08;;;;;;;11.89;83.91;99282.27;1634005;87;21090;-69
2021/05/21 01:36:04;;;;;;;2.87;2.55;;;;;;;12.00;83.61;99287.91;1611457;88;21555;-71
2021/05/21 01:38:30;;;;;;;2.80;2.60;;;;;;;12.08;83.15;99280.66;1579370;89;21076;-72
2021/05/21 01:40:57;;;;;;;2.40;2.20;;;;;;;12.13;82.80;99294.11;1600076;89;21158;-70
2021/05/21 01:43:23;;;;;;;3.52;3.22;;;;;;;12.14;82.50;99292.22;1600353;89;21102;-70
2021/05/21 01:45:50;;;;;;;2.62;2.42;;;;;;;12.13;82.46;99290.06;1595043;89;21013;-70
2021/05/21 01:48:18;;;;;;;3.37;3.05;;;;;;;12.11;82.63;99292.23;1579734;89;21074;-72
2021/05/21 01:50:46;;;;;;;2.67;2.47;;;;;;;12.09;82.78;99300.31;1595976;88;21058;-68
2021/05/21 01:53:13;;;;;;;2.80;2.25;;;;;;;12.06;82.96;99300.32;1601755;89;21014;-68
2021/05/21 01:55:40;;;;;;;3.75;2.65;;;;;;;12.05;83.18;99301.39;1601655;88;21609;-69
2021/05/21 01:58:06;;;;;;;2.70;2.50;;;;;;;12.05;83.64;99296.00;1601764;89;21602;-68
2021/05/21 02:00:32;;;;;;;2.60;2.40;;;;;;;12.02;84.05;99300.59;1636624;87;20971;-68
2021/05/21 02:02:59;;;;;;;5.03;2.70;;;;;;;11.99;84.64;99301.67;1628468;87;21057;-69
2021/05/21 02:05:25;;;;;;;4.05;2.85;;;;;;;11.95;85.14;99302.73;1642896;87;21122;-68
2021/05/21 02:07:52;;;;;;;5.42;2.42;;;;;;;11.93;85.87;99304.09;1643985;86;21090;-69
2021/05/21 02:10:18;;;;;;;4.55;2.95;;;;;;;11.90;86.13;99310.80;1622370;88;21027;-68
2021/05/21 02:12:45;;;;;;;3.00;2.67;;;;;;;11.88;86.27;99317.02;1639104;87;21085;-67
2021/05/21 02:15:13;;;;;;;3.72;2.58;;;;;;;11.87;86.24;99316.74;1632510;86;21066;-68
2021/05/21 02:17:41;;;;;;;3.25;2.70;;;;;;;11.86;86.11;99318.34;1637658;87;21038;-67
2021/05/21 02:20:10;;;;;;;4.55;2.62;;;;;;;11.82;86.24;99318.08;1634317;86;21053;-67
2021/05/21 02:22:39;;;;;;;7.03;3.02;;;;;;;11.78;86.54;99315.12;1627042;87;20931;-69
2021/05/21 02:25:07;;;;;;;4.67;3.22;;;;;;;11.76;86.78;99319.14;1639433;86;21035;-67
2021/05/21 02:27:33;;;;;;;3.42;2.62;;;;;;;11.73;86.91;99319.14;1640187;86;21105;-67
2021/05/21 02:30:00;;;;;;;5.42;3.20;;;;;;;11.74;87.18;99326.16;1626854;87;21106;-69
2021/05/21 02:32:26;;;;;;;2.75;2.40;;;;;;;11.74;87.25;99324.00;1636598;87;21750;-68
2021/05/21 02:34:53;;;;;;;4.60;2.60;;;;;;;11.76;87.21;99325.88;1638708;86;21127;-67
2021/05/21 02:37:21;;;;;;;9.05;3.20;;;;;;;11.76;87.27;99329.38;1637146;86;20979;-69
2021/05/21 02:39:48;;;;;;;2.65;2.45;;;;;;;11.77;87.24;99342.31;1646299;87;21059;-69
2021/05/21 02:42:14;;;;;;;5.20;3.05;;;;;;;11.73;87.25;99342.05;1623041;87;21086;-68
2021/05/21 02:44:41;;;;;;;4.33;3.50;;;;;;;11.70;87.19;99345.78;1631366;87;21118;-67
2021/05/21 02:47:09;;;;;;;3.20;2.98;;;;;;;11.65;87.18;99349.27;1637146;86;20987;-68
2021/05/21 02:49:36;;;;;;;7.62;3.30;;;;;;;11.60;87.30;99345.75;1630611;87;21531;-68
2021/05/21 02:52:05;;;;;;;3.20;2.90;;;;;;;11.55;87.54;99343.04;1644130;87;21698;-68
2021/05/21 02:54:31;;;;;;;4.60;2.90;;;;;;;11.49;87.71;99342.20;1640105;86;21042;-67
2021/05/21 02:56:58;;;;;;;3.67;3.17;;;;;;;11.45;88.02;99349.73;1635130;86;21106;-68
2021/05/21 02:59:24;;;;;;;3.90;2.90;;;;;;;11.43;88.31;99342.44;1640913;86;21089;-69
2021/05/21 03:01:51;;;;;;;4.33;3.05;;;;;;;11.41;88.48;99344.08;1613622;87;21061;-68
2021/05/21 03:04:17;;;;;;;3.05;2.65;;;;;;;11.41;88.68;99341.91;1614036;87;21081;-67
2021/05/21 03:06:43;;;;;;;3.08;2.83;;;;;;;11.38;88.87;99336.50;1636955;87;21618;-69
2021/05/21 03:09:10;;;;;;;3.02;2.83;;;;;;;11.37;89.05;99337.03;1641825;86;21108;-67
2021/05/21 03:11:38;;;;;;;3.27;2.75;;;;;;;11.40;89.33;99347.02;1664352;85;21106;-68
2021/05/21 03:14:06;;;;;;;3.10;2.37;;;;;;;11.42;89.42;99342.16;1658377;85;21040;-67
2021/05/21 03:16:32;;;;;;;5.53;2.90;;;;;;;11.42;89.47;99344.86;1660230;86;21018;-70
2021/05/21 03:18:59;;;;;;;6.75;3.00;;;;;;;11.41;89.47;99347.30;1643478;86;21130;-71
2021/05/21 03:21:26;;;;;;;3.02;2.37;;;;;;;11.42;89.57;99350.23;1637659;86;21023;-68
2021/05/21 03:23:52;;;;;;;5.70;2.65;;;;;;;11.45;89.80;99353.77;1666360;85;21138;-69
2021/05/21 03:26:21;;;;;;;4.08;2.70;;;;;;;11.49;89.79;99350.82;1670175;85;20965;-67
2021/05/21 03:28:47;;;;;;;2.70;2.50;;;;;;;11.54;89.78;99357.04;1647412;86;21628;-68
2021/05/21 03:31:13;;;;;;;5.25;3.17;;;;;;;11.60;89.62;99361.37;1641924;86;21089;-70
2021/05/21 03:33:40;;;;;;;5.25;3.37;;;;;;;11.65;89.47;99365.44;1662127;85;21038;-68
2021/05/21 03:36:07;;;;;;;3.00;2.70;;;;;;;11.69;89.29;99370.56;1663528;86;20963;-67
2021/05/21 03:38:34;;;;;;;3.67;3.10;;;;;;;11.74;89.22;99365.75;1657509;86;21053;-68
2021/05/21 03:41:02;;;;;;;3.05;2.85;;;;;;;11.82;89.10;99367.92;1663857;85;21572;-68
2021/05/21 03:43:29;;;;;;;7.87;2.65;;;;;;;11.87;88.63;99373.33;1663379;86;21103;-67
2021/05/21 03:45:56;;;;;;;2.45;2.33;;;;;;;11.92;88.25;99375.23;1663224;86;21097;-68
2021/05/21 03:48:22;;;;;;;4.95;2.90;;;;;;;11.96;87.80;99377.13;1653969;86;21022;-68
2021/05/21 03:50:49;;;;;;;3.08;2.67;;;;;;;11.99;87.51;99379.84;1653996;86;21039;-68
2021/05/21 03:53:16;;;;;;;4.60;2.60;;;;;;;12.02;87.35;99376.59;1653795;86;21606;-70
2021/05/21 03:55:44;;;;;;;3.02;2.72;;;;;;;12.07;87.05;99386.05;1652631;86;20975;-69
2021/05/21 03:58:10;;;;;;;4.58;3.72;;;;;;;12.12;86.86;99378.78;1652902;86;21009;-69
2021/05/21 04:00:37;;;;;;;2.98;2.77;;;;;;;12.17;86.37;99380.67;1627829;87;21037;-68
2021/05/21 04:03:07;;;;;;;2.67;2.47;;;;;;;12.22;85.98;99390.11;1645177;86;21587;-68
2021/05/21 04:05:33;;;;;;;2.85;2.60;;;;;;;12.28;85.67;99390.38;1626649;87;21089;-68
2021/05/21 04:08:00;;;;;;;3.05;2.85;;;;;;;12.33;85.37;99397.12;1617903;87;21110;-68
2021/05/21 04:10:27;;;;;;;2.85;2.25;;;;;;;12.38;84.94;99397.66;1645207;87;21849;-67
2021/05/21 04:12:55;;;;;;;5.00;3.52;;;;;;;12.43;84.46;99399.02;1633974;86;21031;-68
2021/05/21 04:15:21;;;;;;;2.85;2.60;;;;;;;12.43;83.24;99399.02;1636072;86;21004;-68
2021/05/21 04:17:48;;;;;;;2.42;2.22;;;;;;;12.47;82.81;99405.52;1601738;87;21054;-65
2021/05/21 04:20:15;;;;;;;2.60;2.40;;;;;;;12.52;82.65;99405.48;1600603;88;21105;-66
2021/05/21 04:22:41;;;;;;;3.50;2.47;;;;;;;12.55;82.03;99404.44;1620550;87;21082;-68
2021/05/21 04:25:10;;;;;;;2.75;2.55;;;;;;;12.54;80.81;99406.05;1610122;88;21065;-67
2021/05/21 04:27:36;;;;;;;1.95;1.82;;;;;;;12.60;80.80;99404.97;1618829;88;21075;-69
2021/05/21 04:30:05;;;;;;;2.40;2.20;;;;;;;12.66;80.38;99405.25;1618822;88;21078;-68
2021/05/21 04:32:31;;;;;;;2.08;1.85;;;;;;;12.73;80.33;99403.61;1618700;88;21110;-67
2021/05/21 04:34:59;;;;;;;3.02;1.90;;;;;;;12.78;80.20;99407.12;1618909;88;21114;-67
2021/05/21 04:37:25;;;;;;;2.33;2.12;;;;;;;12.84;78.77;99416.84;1619200;87;20963;-68
2021/05/21 04:39:52;;;;;;;2.65;2.00;;;;;;;12.86;77.42;99420.06;1632933;87;21564;-67
2021/05/21 04:42:18;;;;;;;5.40;2.33;;;;;;;12.92;76.39;99419.52;1642880;86;21098;-69
2021/05/21 04:44:44;;;;;;;2.83;2.15;;;;;;;12.96;74.91;99415.19;1626346;87;21577;-66
2021/05/21 04:47:12;;;;;;;2.00;1.42;;;;;;;13.01;73.94;99419.23;1644907;87;21000;-67
2021/05/21 04:49:39;;;;;;;1.77;1.67;;;;;;;13.07;74.44;99419.50;1624285;87;21081;-66
2021/05/21 04:52:08;;;;;;;1.85;1.75;;;;;;;13.16;74.66;99421.13;1643524;86;21086;-67
2021/05/21 04:54:36;;;;;;;2.22;1.80;;;;;;;13.24;74.03;99423.27;1645384;86;21000;-66
2021/05/21 04:57:03;;;;;;;1.72;1.62;;;;;;;13.26;73.02;99428.68;1645420;87;21083;-67
2021/05/21 04:59:30;;;;;;;1.95;1.40;;;;;;;13.32;73.16;99430.83;1645213;86;21034;-68
2021/05/21 05:01:56;;;;;;;3.30;1.77;;;;;;;13.39;72.54;99437.55;1651216;86;21057;-67
2021/05/21 05:04:22;;;;;;;2.30;2.10;;;;;;;13.44;71.33;99450.23;1654462;86;21031;-67
2021/05/21 05:06:51;;;;;;;2.33;2.12;;;;;;;13.44;71.04;99438.89;1652489;86;21574;-66
2021/05/21 05:09:19;;;;;;;2.15;1.87;;;;;;;13.47;71.01;99441.06;1631713;86;21558;-67
2021/05/21 05:11:47;;;;;;;2.87;1.72;;;;;;;13.47;69.95;99442.41;1654299;86;21115;-69
2021/05/21 05:14:13;;;;;;;2.00;1.85;;;;;;;13.50;69.86;99441.05;1642738;86;20969;-68
2021/05/21 05:16:40;;;;;;;3.85;1.98;;;;;;;13.52;70.68;99447.78;1626828;86;21175;-69
2021/05/21 05:19:06;;;;;;;1.72;1.62;;;;;;;13.56;70.81;99454.81;1631625;86;21095;-67
2021/05/21 05:21:40;;;;;;;2.30;2.05;;;;;;;13.59;71.13;99459.66;1653784;86;21550;-68
2021/05/21 05:24:18;;;;;;;1.90;1.80;;;;;;;13.59;70.14;99464.25;1650409;86;21045;-67
2021/05/21 05:26:46;;;;;;;7.65;2.40;;;;;;;13.60;69.97;99466.69;1609761;86;21074;-70
2021/05/21 05:29:12;;;;;;;2.80;1.57;;;;;;;13.62;70.03;99467.77;1654196;86;20932;-68
2021/05/21 05:31:39;;;;;;;3.67;2.08;;;;;;;13.66;69.23;99468.30;1654607;86;21580;-66
2021/05/21 05:34:06;;;;;;;4.92;2.33;;;;;;;13.69;69.27;99464.22;1654768;86;21091;-68
2021/05/21 05:36:33;;;;;;;2.02;1.87;;;;;;;13.71;69.17;99460.17;1631821;86;21965;-68
2021/05/21 05:39:00;;;;;;;2.87;1.40;;;;;;;13.72;69.65;99460.41;1644744;86;20986;-68
2021/05/21 05:41:26;;;;;;;1.92;1.82;;;;;;;13.74;69.35;99462.84;1628072;88;21010;-67
2021/05/21 05:43:53;;;;;;;2.15;1.25;;;;;;;13.76;68.59;99456.10;1606307;88;21089;-67
2021/05/21 05:46:21;;;;;;;4.78;1.67;;;;;;;13.79;68.85;99460.13;1628185;86;21095;-68
2021/05/21 05:48:48;;;;;;;2.35;1.75;;;;;;;13.84;68.92;99466.33;1653560;86;21132;-65
2021/05/21 05:51:15;;;;;;;7.45;2.08;;;;;;;13.87;68.46;99473.88;1654437;86;20935;-67
2021/05/21 05:53:41;;;;;;;5.28;1.80;;;;;;;13.92;68.80;99468.98;1654625;86;20981;-67
2021/05/21 05:56:08;;;;;;;1.80;1.70;;;;;;;13.99;69.35;99476.27;1628502;86;21013;-67
2021/05/21 05:58:35;;;;;;;5.75;1.90;;;;;;;14.04;68.37;99470.03;1631481;86;21049;-67
2021/05/21 06:01:02;;;;;;;3.40;3.10;;;;;;;14.09;66.29;99472.17;1650630;86;21812;-68
2021/05/21 06:03:29;;;;;;;5.22;2.10;;;;;;;14.18;66.20;99471.86;1623342;87;21056;-66
2021/05/21 06:05:56;;;;;;;4.50;1.30;;;;;;;14.22;65.89;99474.27;1618826;87;21031;-67
2021/05/21 06:08:23;;;;;;;3.55;1.40;;;;;;;14.24;64.66;99472.10;1636370;87;21127;-66
2021/05/21 06:10:52;;;;;;;2.70;1.57;;;;;;;14.26;64.23;99469.91;1643398;87;22260;-68
2021/05/21 06:13:25;;;;;;;2.50;1.55;;;;;;;14.31;64.97;99459.60;1644084;87;21023;-68
2021/05/21 06:15:51;;;;;;;1.50;1.40;;;;;;;14.36;65.19;99461.77;1598844;88;20994;-68
2021/05/21 06:18:18;;;;;;;1.10;1.10;;;;;;;14.42;64.21;99461.73;1618798;88;21630;-66
2021/05/21 06:20:44;;;;;;;3.00;1.40;;;;;;;14.46;63.26;99457.38;1618729;87;21073;-66
2021/05/21 06:23:11;;;;;;;2.30;2.17;;;;;;;14.50;64.14;99455.72;1619155;87;21261;-66
2021/05/21 06:28:18;;;;;;;1.20;1.20;;;;;;;14.55;62.65;99471.38;1635922;87;20988;-68
2021/05/21 06:30:44;;;;;;;1.72;1.62;;;;;;;14.59;62.46;99468.92;1645156;86;21027;-67
2021/05/21 06:33:10;;;;;;;1.20;1.10;;;;;;;14.63;62.58;99469.42;1624637;87;21060;-67
2021/05/21 06:35:37;;;;;;;1.40;1.00;;;;;;;14.68;61.66;99473.45;1643304;87;21050;-68
2021/05/21 06:38:05;;;;;;;4.15;1.32;;;;;;;14.74;61.03;99466.10;1645450;86;21734;-68
2021/05/21 06:40:32;;;;;;;1.07;0.90;;;;;;;14.80;61.09;99469.86;1645244;86;20975;-68
2021/05/21 06:42:59;;;;;;;2.22;1.10;;;;;;;14.87;60.10;99465.45;1645161;86;22269;-68
2021/05/21 06:45:25;;;;;;;1.07;0.90;;;;;;;14.95;59.15;99473.53;1645268;86;20987;-67
2021/05/21 06:47:51;;;;;;;1.07;0.98;;;;;;;14.99;58.74;99475.92;1633771;87;21135;-68
2021/05/21 06:50:18;;;;;;;0.85;0.85;;;;;;;15.02;59.00;99468.58;1639162;87;21834;-69
2021/05/21 06:52:44;;;;;;;0.95;0.95;;;;;;;15.04;58.98;99468.57;1618899;88;21059;-66
2021/05/21 06:55:13;;;;;;;1.15;1.05;;;;;;;15.04;59.42;99464.52;1618978;87;21047;-68
2021/05/21 06:57:39;;;;;;;2.65;1.92;;;;;;;15.08;59.58;99464.20;1620563;87;21020;-69
2021/05/21 07:00:08;;;;;;;1.87;0.93;;;;;;;15.07;58.99;99472.05;1598925;88;21015;-68
2021/05/21 07:02:35;;;;;;;3.72;1.02;;;;;;;15.08;57.69;99475.58;1618901;87;21063;-67
2021/05/21 07:05:03;;;;;;;1.22;1.12;;;;;;;15.11;57.25;99476.35;1604039;87;21608;-65
2021/05/21 07:07:31;;;;;;;2.08;1.07;;;;;;;15.15;57.54;99493.68;1624465;87;21564;-67
2021/05/21 07:10:00;;;;;;;1.10;1.00;;;;;;;15.21;57.12;99487.09;1645118;86;20979;-66
2021/05/21 07:12:28;;;;;;;0.95;0.93;;;;;;;15.23;55.71;99480.86;1645440;86;21046;-67
2021/05/21 07:14:55;;;;;;;12.28;1.12;;;;;;;15.24;56.13;99477.88;1624131;87;21819;-66
2021/05/21 07:17:21;;;;;;;3.27;1.27;;;;;;;15.27;57.34;99481.36;1645105;86;21105;-67
2021/05/21 07:19:48;;;;;;;2.00;1.30;;;;;;;15.34;58.02;99484.29;1630264;86;20962;-68
2021/05/21 07:22:16;;;;;;;2.67;0.78;;;;;;;15.38;58.29;99482.07;1598637;88;20994;-68
2021/05/21 07:24:42;;;;;;;1.40;1.10;;;;;;;15.46;58.57;99484.69;1598825;88;20962;-67
2021/05/21 07:27:08;;;;;;;1.67;1.32;;;;;;;15.53;57.88;99484.66;1598598;88;21159;-66
2021/05/21 07:29:35;;;;;;;5.08;1.87;;;;;;;15.61;57.11;99485.38;1620280;87;21685;-65
2021/05/21 07:32:02;;;;;;;4.45;1.35;;;;;;;15.66;56.60;99495.36;1622581;87;21160;-67
2021/05/21 07:34:28;;;;;;;1.52;1.42;;;;;;;15.74;57.55;99514.25;1624339;87;21031;-67
2021/05/21 07:36:55;;;;;;;1.40;1.30;;;;;;;15.79;57.49;99493.85;1624484;87;21097;-65
2021/05/21 07:39:22;;;;;;;1.55;1.42;;;;;;;15.81;57.07;99500.63;1619914;87;21099;-66
2021/05/21 07:41:49;;;;;;;9.58;1.65;;;;;;;15.82;56.91;99498.72;1619001;87;21623;-67
2021/05/21 07:44:16;;;;;;;1.70;1.60;;;;;;;15.82;56.85;99500.08;1631636;87;20960;-68
2021/05/21 07:46:42;;;;;;;1.90;1.65;;;;;;;15.83;56.76;99495.70;1623997;87;21095;-67
2021/05/21 07:49:10;;;;;;;1.57;1.30;;;;;;;15.85;56.66;99506.27;1645041;87;21615;-66
2021/05/21 07:51:37;;;;;;;1.10;0.85;;;;;;;15.87;54.84;99510.33;1633104;86;21325;-68
2021/05/21 07:54:04;;;;;;;0.88;0.88;;;;;;;15.90;54.93;99508.38;1618893;88;20991;-67
2021/05/21 07:56:30;;;;;;;1.17;1.10;;;;;;;15.94;54.62;99505.89;1630901;87;21129;-69
2021/05/21 07:58:57;;;;;;;1.55;1.45;;;;;;;15.96;54.57;99502.35;1645299;86;20983;-68
2021/05/21 08:01:24;;;;;;;10.40;7.42;;;;;;;16.00;54.29;99496.05;1647893;86;21590;-65
2021/05/21 08:03:50;;;;;;;3.45;2.20;;;;;;;16.09;53.90;99500.28;1653838;86;21780;-69
2021/05/21 08:06:19;;;;;;;2.72;1.20;;;;;;;16.19;55.22;99519.70;1645601;86;20942;-68
2021/05/21 08:08:46;;;;;;;1.50;1.20;;;;;;;16.18;56.33;99516.17;1627966;88;21054;-66
2021/05/21 08:11:13;;;;;;;1.22;1.05;;;;;;;16.10;56.65;99520.35;1627857;88;21098;-66
2021/05/21 08:13:40;;;;;;;2.98;1.10;;;;;;;16.02;56.37;99514.19;1607427;88;21053;-66
2021/05/21 08:16:10;;;;;;;2.90;1.52;;;;;;;15.95;56.66;99511.58;1627910;87;21005;-66
2021/05/21 08:18:37;;;;;;;1.85;1.67;;;;;;;15.92;56.74;99499.38;1631141;86;21018;-69
2021/05/21 08:21:05;;;;;;;1.32;0.93;;;;;;;15.94;56.75;99512.67;1631416;86;21043;-68
2021/05/21 08:23:31;;;;;;;1.35;1.22;;;;;;;15.95;55.56;99508.32;1652672;86;21110;-67
2021/05/21 08:25:59;;;;;;;1.32;1.30;;;;;;;16.00;55.35;99510.16;1654429;86;21026;-68
2021/05/21 08:28:26;;;;;;;1.95;0.85;;;;;;;16.02;55.28;99522.88;1631831;86;21057;-67
2021/05/21 08:30:53;;;;;;;0.85;0.85;;;;;;;16.05;54.12;99533.16;1649756;86;21582;-66
2021/05/21 08:33:20;;;;;;;0.78;0.78;;;;;;;16.08;52.97;99508.16;1627869;87;21262;-66
2021/05/21 08:35:47;;;;;;;1.75;0.88;;;;;;;16.07;53.19;99529.59;1627860;87;21053;-67
2021/05/21 08:38:14;;;;;;;0.65;0.65;;;;;;;16.10;52.71;99513.56;1627753;87;21046;-66
2021/05/21 08:40:41;;;;;;;0.93;0.93;;;;;;;16.15;52.46;99530.33;1627847;87;21683;-67
2021/05/21 08:43:10;;;;;;;1.12;1.02;;;;;;;16.21;51.67;99512.86;1606927;87;20994;-66
2021/05/21 08:45:38;;;;;;;0.70;0.70;;;;;;;16.24;51.87;99521.80;1629539;86;21073;-67
2021/05/21 08:48:07;;;;;;;3.52;1.10;;;;;;;16.31;52.57;99516.00;1641474;86;20978;-68
2021/05/21 08:50:34;;;;;;;3.77;1.32;;;;;;;16.38;49.18;99538.17;1653971;86;21082;-67
2021/05/21 08:53:00;;;;;;;1.52;1.02;;;;;;;16.37;49.63;99529.22;1654635;86;21172;-66
2021/05/21 08:55:27;;;;;;;1.12;1.00;;;;;;;16.43;51.15;99531.33;1654530;86;21007;-69
2021/05/21 08:57:53;;;;;;;2.02;1.30;;;;;;;16.47;51.50;99524.20;1618670;87;21125;-67
2021/05/21 09:00:21;;;;;;;1.70;1.42;;;;;;;16.51;52.66;99522.52;1630701;86;21082;-65
2021/05/21 09:02:47;;;;;;;0.98;0.90;;;;;;;16.52;52.94;99530.38;1629426;86;21019;-66
2021/05/21 09:05:14;;;;;;;0.95;0.95;;;;;;;16.56;52.77;99536.02;1632067;87;21792;-67
2021/05/21 09:07:41;;;;;;;1.57;1.32;;;;;;;16.58;51.84;99529.80;1624298;87;21003;-67
2021/05/21 09:10:14;;;;;;;1.37;1.27;;;;;;;16.58;50.66;99547.44;1622533;87;20991;-68
2021/05/21 09:12:47;;;;;;;1.27;1.17;;;;;;;16.59;50.37;99540.92;1624726;87;20971;-67
2021/05/21 09:15:25;;;;;;;2.55;0.88;;;;;;;16.62;50.28;99537.61;1645485;86;21022;-68
2021/05/21 09:17:56;;;;;;;0.90;0.90;;;;;;;16.64;48.00;99538.13;1631500;86;21089;-69
2021/05/21 09:20:27;;;;;;;0.80;0.60;;;;;;;16.67;48.50;99543.52;1623312;87;21086;-68
2021/05/21 09:23:14;;;;;;;3.47;0.95;;;;;;;16.69;46.95;99546.76;1620683;87;21574;-69
2021/05/21 09:25:46;;;;;;;0.95;0.95;;;;;;;16.71;47.88;99529.05;1619044;87;21106;-66
2021/05/21 09:28:43;;;;;;;3.15;0.78;;;;;;;16.76;47.96;99537.13;1621252;87;21050;-68
2021/05/21 09:31:18;;;;;;;4.15;1.42;;;;;;;16.83;48.37;99534.05;1625070;87;21776;-70
2021/05/21 09:33:48;;;;;;;0.82;0.70;;;;;;;16.89;49.40;99532.30;1624808;87;20932;-68
2021/05/21 09:36:18;;;;;;;1.55;1.10;;;;;;;16.92;48.43;99526.84;1634543;85;21135;-67
2021/05/21 09:38:50;;;;;;;4.75;2.12;;;;;;;17.00;48.84;99532.41;1639754;87;21068;-69
2021/05/21 09:41:17;;;;;;;4.20;1.70;;;;;;;17.07;49.09;99532.05;1632297;86;21094;-73
2021/05/21 09:43:55;;;;;;;3.77;1.42;;;;;;;17.11;48.68;99528.98;1618909;88;21513;-75
2021/05/21 09:46:22;;;;;;;7.03;2.12;;;;;;;17.15;49.05;99527.84;1641537;87;21063;-78
2021/05/21 09:48:48;;;;;;;3.22;1.67;;;;;;;17.25;48.17;99542.63;1645123;86;21020;-72
2021/05/21 09:51:16;;;;;;;1.42;1.12;;;;;;;17.36;47.66;99554.95;1644704;87;21012;-69
2021/05/21 09:53:46;;;;;;;1.80;1.32;;;;;;;17.47;46.74;99531.09;1614421;88;21607;-70
2021/05/21 09:56:20;;;;;;;3.67;1.37;;;;;;;17.53;47.53;99525.82;1620244;87;21132;-65
2021/05/21 09:58:47;;;;;;;2.65;1.10;;;;;;;17.61;47.76;99518.35;1598502;88;21015;-69
2021/05/21 10:01:24;;;;;;;5.30;1.40;;;;;;;17.66;47.97;99523.70;1598648;88;21570;-73
2021/05/21 10:03:55;;;;;;;2.85;1.10;;;;;;;17.75;48.10;99527.33;1618847;87;21618;-71
2021/05/21 10:06:25;;;;;;;1.12;0.98;;;;;;;17.85;47.73;99526.59;1619010;88;21050;-74
2021/05/21 10:08:55;;;;;;;2.02;1.30;;;;;;;17.95;47.85;99519.34;1627622;87;21918;-72
2021/05/21 10:11:20;;;;;;;2.02;1.10;;;;;;;18.03;46.24;99538.52;1628367;87;21982;-71
2021/05/21 10:13:46;;;;;;;1.57;1.02;;;;;;;18.08;46.82;99540.32;1629097;87;21070;-69
2021/05/21 10:16:17;;;;;;;5.33;1.20;;;;;;;18.03;46.13;99548.59;1618802;87;21097;-72
2021/05/21 10:18:53;;;;;;;2.20;0.80;;;;;;;17.98;41.90;99523.64;1598672;88;21086;-76
2021/05/21 10:21:21;;;;;;;2.92;1.75;;;;;;;17.99;43.57;99529.31;1600347;87;21093;-75
2021/05/21 10:24:05;;;;;;;0.90;0.90;;;;;;;17.96;43.15;99527.76;1621748;87;21594;-75
2021/05/21 10:26:34;;;;;;;1.57;0.95;;;;;;;17.98;43.65;99514.67;1622618;87;21018;-77
2021/05/21 10:29:11;;;;;;;2.92;0.93;;;;;;;18.05;43.43;99526.75;1625861;87;20947;-71
2021/05/21 10:31:38;;;;;;;0.80;0.80;;;;;;;18.13;43.19;99538.86;1644919;87;21031;-67
2021/05/21 10:34:22;;;;;;;1.35;1.00;;;;;;;18.15;38.33;99520.30;1644624;87;21170;-68
2021/05/21 10:37:29;;;;;;;0.80;0.80;;;;;;;18.11;40.67;99514.66;1603974;87;21079;-70
2021/05/21 10:40:25;;;;;;;1.25;0.90;;;;;;;18.15;38.78;99527.91;1621866;87;21015;-68
2021/05/21 10:43:17;;;;;;;2.02;1.20;;;;;;;18.22;38.32;99524.20;1620723;87;21011;-68
2021/05/21 10:46:02;;;;;;;0.78;0.70;;;;;;;18.26;38.37;99517.07;1640759;87;21063;-69
2021/05/21 10:48:29;;;;;;;2.33;1.00;;;;;;;18.34;37.68;99525.06;1645370;87;21453;-67
2021/05/21 10:51:12;;;;;;;1.62;0.75;;;;;;;18.39;38.17;99511.89;1624589;87;20987;-68
2021/05/21 10:53:41;;;;;;;0.60;0.60;;;;;;;18.45;38.37;99506.04;1637427;87;20948;-69
2021/05/21 10:56:08;;;;;;;4.45;0.88;;;;;;;18.54;38.41;99517.04;1624647;87;21039;-68
2021/05/21 10:58:43;;;;;;;1.37;1.25;;;;;;;18.60;37.17;99496.20;1645542;87;21061;-68
2021/05/21 11:01:27;;;;;;;2.75;1.10;;;;;;;18.69;36.97;99498.99;1608930;88;21208;-69
2021/05/21 11:04:03;;;;;;;1.35;1.15;;;;;;;18.74;37.03;99500.23;1618811;88;21019;-70
2021/05/21 11:06:31;;;;;;;3.98;1.95;;;;;;;18.80;38.19;99498.98;1619155;87;21458;-68
2021/05/21 11:09:04;;;;;;;1.65;1.55;;;;;;;18.83;37.44;99535.17;1618921;87;21650;-68
2021/05/21 11:12:05;;;;;;;2.42;1.47;;;;;;;18.83;37.71;99495.66;1619113;88;21026;-69
2021/05/21 11:14:42;;;;;;;1.77;1.60;;;;;;;18.73;38.38;99503.52;1618933;87;22165;-67
2021/05/21 11:17:27;;;;;;;1.25;1.15;;;;;;;18.68;39.02;99494.65;1618730;88;20999;-70
2021/05/21 11:19:57;;;;;;;3.75;1.75;;;;;;;18.72;38.83;99498.37;1619314;87;21129;-69
2021/05/21 11:22:37;;;;;;;4.37;1.32;;;;;;;18.73;39.47;99504.07;1618866;87;21094;-69
2021/05/21 11:25:07;;;;;;;0.90;0.90;;;;;;;18.87;39.63;99495.28;1610877;87;21059;-68
2021/05/21 11:27:36;;;;;;;2.15;1.22;;;;;;;19.02;39.02;99495.48;1645270;87;21081;-68
2021/05/21 11:30:07;;;;;;;3.83;1.47;;;;;;;19.12;37.44;99496.59;1624431;87;21043;-66
2021/05/21 11:32:37;;;;;;;2.52;1.25;;;;;;;19.18;37.82;99502.95;1645372;87;21092;-65
2021/05/21 11:35:08;;;;;;;1.50;1.40;;;;;;;19.16;37.96;99509.30;1635912;86;21561;-70
2021/05/21 11:37:35;;;;;;;1.25;1.15;;;;;;;19.12;37.86;99541.58;1644244;87;21249;-70
2021/05/21 11:40:05;;;;;;;2.47;1.00;;;;;;;19.10;37.97;99500.98;1644670;86;21118;-70
2021/05/21 11:42:31;;;;;;;0.80;0.80;;;;;;;19.14;38.09;99507.97;1642891;87;21035;-72